createdAt,value
2019-06-10T00:01:47.902Z,12.30
2019-06-10T00:04:18.446Z,9.80
2019-06-10T00:06:50.856Z,9.93
2019-06-10T00:09:21.138Z,7.67
2019-06-10T00:11:51.685Z,9.78
2019-06-10T00:14:22.829Z,8.83
2019-06-10T00:16:53.035Z,10.23
2019-06-10T00:19:23.216Z,8.00
2019-06-10T00:21:53.410Z,8.30
2019-06-10T00:24:23.971Z,8.15
2019-06-10T00:26:55.237Z,6.87
2019-06-10T00:29:25.435Z,10.53
2019-06-10T00:31:55.710Z,9.40
2019-06-10T00:34:25.975Z,10.10
2019-06-10T00:36:56.175Z,10.03
2019-06-10T00:39:26.549Z,11.73
2019-06-10T00:41:56.734Z,7.80
2019-06-10T00:44:27.012Z,12.58
2019-06-10T00:46:57.264Z,8.43
2019-06-10T00:49:27.463Z,14.45
2019-06-10T00:51:57.721Z,10.48
2019-06-10T00:54:27.990Z,5.90
2019-06-10T00:56:58.171Z,10.18
2019-06-10T00:59:31.182Z,12.07
2019-06-10T01:02:02.968Z,7.42
2019-06-10T01:04:33.919Z,6.17
2019-06-10T01:07:04.749Z,8.08
2019-06-10T01:09:35.305Z,13.30
2019-06-10T01:12:06.886Z,12.00
2019-06-10T01:14:37.598Z,10.05
2019-06-10T01:17:07.794Z,7.58
2019-06-10T01:19:41.396Z,10.35
2019-06-10T01:22:13.547Z,9.45
2019-06-10T01:24:43.810Z,8.28
2019-06-10T01:27:15.104Z,10.32
2019-06-10T01:29:46.450Z,7.95
2019-06-10T01:32:17.694Z,8.13
2019-06-10T01:37:17.643Z,11.28
2019-06-10T01:39:47.964Z,9.15
2019-06-10T01:42:18.151Z,8.00
2019-06-10T01:44:50.536Z,5.53
2019-06-10T01:47:21.619Z,7.50
2019-06-10T01:49:52.235Z,7.83
2019-06-10T01:52:22.503Z,8.15
2019-06-10T01:54:52.684Z,7.72
2019-06-10T01:57:22.881Z,9.85
2019-06-10T01:59:53.128Z,8.35
2019-06-10T02:02:25.564Z,7.87
2019-06-10T02:04:55.806Z,9.10
2019-06-10T02:07:25.998Z,7.67
2019-06-10T02:09:57.522Z,10.63
2019-06-10T02:12:27.722Z,4.97
2019-06-10T02:14:57.945Z,8.28
2019-06-10T02:17:28.163Z,7.90
2019-06-10T02:19:58.362Z,7.62
2019-06-10T02:22:28.559Z,9.05
2019-06-10T02:25:01.111Z,9.00
2019-06-10T02:27:31.530Z,7.20
2019-06-10T02:30:13.195Z,11.97
2019-06-10T02:32:37.669Z,11.20
2019-06-10T02:35:13.721Z,5.72
2019-06-10T02:37:38.691Z,7.35
2019-06-10T02:40:08.937Z,9.90
2019-06-10T02:42:43.677Z,12.78
2019-06-10T02:45:15.188Z,11.35
2019-06-10T02:47:45.750Z,9.95
2019-06-10T02:50:22.745Z,7.35
2019-06-10T02:52:49.442Z,8.05
2019-06-10T02:55:22.056Z,8.88
2019-06-10T02:57:53.273Z,10.98
2019-06-10T03:00:36.983Z,8.13
2019-06-10T03:02:55.390Z,7.45
2019-06-10T03:05:30.739Z,13.55
2019-06-10T03:07:58.668Z,12.75
2019-06-10T03:13:01.822Z,9.40
2019-06-10T03:15:36.418Z,8.23
2019-06-10T03:18:06.597Z,12.88
2019-06-10T03:20:36.794Z,11.28
2019-06-10T03:23:06.998Z,11.35
2019-06-10T03:25:37.200Z,10.08
2019-06-10T03:28:07.459Z,6.30
2019-06-10T03:30:49.737Z,13.22
2019-06-10T03:33:09.555Z,6.67
2019-06-10T03:35:42.248Z,10.30
2019-06-10T03:38:12.381Z,9.65
2019-06-10T03:40:43.434Z,11.65
2019-06-10T03:43:13.736Z,10.32
2019-06-10T03:45:44.081Z,11.88
2019-06-10T03:48:14.251Z,7.60
2019-06-10T03:50:44.451Z,9.10
2019-06-10T03:53:14.631Z,9.58
2019-06-10T03:55:44.840Z,6.37
2019-06-10T03:58:15.175Z,11.60
2019-06-10T04:00:45.378Z,10.45
2019-06-10T04:03:15.578Z,7.28
2019-06-10T04:05:45.768Z,7.90
2019-06-10T04:08:17.434Z,8.45
2019-06-10T04:13:17.493Z,10.23
2019-06-10T04:15:47.693Z,10.65
2019-06-10T04:18:17.979Z,9.28
2019-06-10T04:20:48.222Z,11.50
2019-06-10T04:23:19.625Z,7.45
2019-06-10T04:25:52.696Z,5.10
2019-06-10T04:28:25.947Z,6.80
2019-06-10T04:30:55.326Z,7.03
2019-06-10T04:33:26.230Z,11.35
2019-06-10T04:35:57.730Z,9.53
2019-06-10T04:38:29.083Z,8.53
2019-06-10T04:43:28.936Z,6.10
2019-06-10T04:45:59.339Z,7.08
2019-06-10T04:48:29.546Z,7.15
2019-06-10T04:51:02.452Z,8.98
2019-06-10T04:53:32.955Z,7.42
2019-06-10T04:56:03.548Z,10.28
2019-06-10T04:58:33.821Z,6.87
2019-06-10T05:01:04.007Z,10.18
2019-06-10T05:03:34.742Z,8.35
2019-06-10T05:06:04.941Z,9.83
2019-06-10T05:08:35.123Z,9.55
2019-06-10T05:11:06.582Z,8.15
2019-06-10T05:13:36.757Z,6.80
2019-06-10T05:16:07.020Z,8.13
2019-06-10T05:18:37.196Z,8.68
2019-06-10T05:21:07.383Z,7.50
2019-06-10T05:23:37.560Z,5.65
2019-06-10T05:26:07.753Z,5.83
2019-06-10T05:28:37.947Z,3.42
2019-06-10T05:31:08.163Z,9.10
2019-06-10T05:33:38.343Z,8.18
2019-06-10T05:36:08.528Z,10.55
2019-06-10T05:38:38.722Z,6.95
2019-06-10T05:41:08.899Z,6.42
2019-06-10T05:43:40.131Z,8.70
2019-06-10T05:46:10.315Z,8.30
2019-06-10T05:48:40.678Z,9.45
2019-06-10T05:51:12.420Z,7.28
2019-06-10T05:53:45.727Z,8.18
2019-06-10T05:56:14.707Z,9.95
2019-06-10T05:58:44.895Z,9.10
2019-06-10T06:01:15.094Z,8.73
2019-06-10T06:03:45.274Z,6.97
2019-06-10T06:06:15.510Z,4.75
2019-06-10T06:08:46.127Z,8.90
2019-06-10T06:11:16.323Z,7.70
2019-06-10T06:13:46.511Z,6.85
2019-06-10T06:16:16.860Z,10.32
2019-06-10T06:18:47.053Z,5.55
2019-06-10T06:21:25.397Z,6.37
2019-06-10T06:23:49.120Z,7.10
2019-06-10T06:26:19.317Z,5.50
2019-06-10T06:28:49.563Z,6.55
2019-06-10T06:31:19.756Z,10.90
2019-06-10T06:33:52.407Z,4.78
2019-06-10T06:36:22.616Z,5.60
2019-06-10T06:41:23.476Z,6.00
2019-06-10T06:43:53.646Z,6.90
2019-06-10T06:46:25.100Z,6.80
2019-06-10T06:48:55.563Z,3.92
2019-06-10T06:51:38.034Z,3.75
2019-06-10T06:53:57.656Z,6.70
2019-06-10T06:56:28.866Z,3.90
2019-06-10T06:58:59.202Z,5.37
2019-06-10T07:01:34.669Z,4.95
2019-06-10T07:04:02.734Z,5.65
2019-06-10T07:06:34.523Z,6.50
2019-06-10T07:09:08.282Z,4.92
2019-06-10T07:11:39.882Z,8.28
2019-06-10T07:14:12.805Z,5.97
2019-06-10T07:16:45.982Z,4.50
2019-06-10T07:19:13.884Z,7.90
2019-06-10T07:22:02.589Z,4.20
2019-06-10T07:24:15.948Z,5.90
2019-06-10T07:26:52.139Z,5.37
2019-06-10T07:29:18.107Z,5.95
2019-06-10T07:31:50.338Z,5.62
2019-06-10T07:34:22.256Z,6.17
2019-06-10T07:36:52.398Z,8.98
2019-06-10T07:39:22.862Z,6.80
2019-06-10T07:41:53.267Z,4.22
2019-06-10T07:44:23.474Z,3.40
2019-06-10T07:46:53.661Z,7.90
2019-06-10T07:49:24.060Z,4.70
2019-06-10T07:51:54.431Z,5.65
2019-06-10T07:54:24.631Z,4.80
2019-06-10T07:56:55.885Z,8.15
2019-06-10T07:59:26.070Z,5.85
2019-06-10T08:01:56.306Z,4.12
2019-06-10T08:04:26.571Z,2.83
2019-06-10T08:06:56.744Z,4.13
2019-06-10T08:09:26.912Z,4.53
2019-06-10T08:11:57.105Z,4.62
2019-06-10T08:14:28.450Z,5.08
2019-06-10T08:16:58.719Z,5.40
2019-06-10T08:19:34.937Z,5.30
2019-06-10T08:22:02.841Z,4.10
2019-06-10T08:24:33.030Z,4.17
2019-06-10T08:27:03.446Z,5.45
2019-06-10T08:29:33.638Z,5.30
2019-06-10T08:32:03.920Z,4.33
2019-06-10T08:34:34.091Z,3.27
2019-06-10T08:37:04.693Z,3.50
2019-06-10T08:39:36.129Z,4.17
2019-06-10T08:42:06.526Z,4.90
2019-06-10T08:44:36.727Z,4.63
2019-06-10T08:47:06.992Z,2.93
2019-06-10T08:49:37.162Z,7.30
2019-06-10T08:52:07.349Z,4.97
2019-06-10T08:54:39.322Z,8.00
2019-06-10T08:57:09.426Z,3.42
2019-06-10T08:59:40.047Z,3.33
2019-06-10T09:02:24.939Z,3.30
2019-06-10T09:04:55.132Z,3.77
2019-06-10T09:07:25.382Z,4.93
2019-06-10T09:09:55.631Z,4.03
2019-06-10T09:12:32.841Z,6.90
2019-06-10T09:14:58.846Z,3.00
2019-06-10T09:17:29.032Z,4.97
2019-06-10T09:19:59.227Z,4.07
2019-06-10T09:22:29.475Z,5.00
2019-06-10T09:24:59.666Z,5.70
2019-06-10T09:27:32.267Z,3.02
2019-06-10T09:30:03.000Z,4.60
2019-06-10T09:32:34.487Z,3.08
2019-06-10T09:35:05.326Z,4.45
2019-06-10T09:37:35.534Z,5.60
2019-06-10T09:40:08.787Z,7.37
2019-06-10T09:42:41.612Z,3.70
2019-06-10T09:45:13.531Z,3.95
2019-06-10T09:47:47.131Z,5.47
2019-06-10T09:50:15.688Z,4.97
2019-06-10T09:52:50.829Z,3.50
2019-06-10T09:55:23.261Z,5.92
2019-06-10T09:57:59.610Z,4.05
2019-06-10T10:00:41.805Z,2.95
2019-06-10T10:03:12.434Z,4.15
2019-06-10T10:05:54.951Z,5.35
2019-06-10T10:08:14.715Z,3.17
2019-06-10T10:10:48.008Z,6.90
2019-06-10T10:13:16.883Z,4.75
2019-06-10T10:15:48.171Z,4.87
2019-06-10T10:18:18.623Z,2.87
2019-06-10T10:20:51.268Z,4.67
2019-06-10T10:23:22.712Z,4.35
2019-06-10T10:25:56.992Z,4.58
2019-06-10T10:28:26.403Z,3.77
2019-06-10T10:30:58.109Z,7.42
2019-06-10T10:33:30.268Z,4.45
2019-06-10T10:36:02.588Z,4.50
2019-06-10T10:38:34.454Z,4.00
2019-06-10T10:41:04.784Z,4.53
2019-06-10T10:43:37.613Z,5.62
2019-06-10T10:46:08.219Z,2.77
2019-06-10T10:48:38.490Z,4.33
2019-06-10T10:51:08.695Z,5.67
2019-06-10T10:53:38.901Z,4.57
2019-06-10T10:56:09.538Z,5.85
2019-06-10T10:58:39.798Z,3.22
2019-06-10T11:01:14.592Z,4.75
2019-06-10T11:03:45.356Z,4.70
2019-06-10T11:06:14.590Z,6.95
2019-06-10T11:08:46.610Z,4.20
2019-06-10T11:11:16.709Z,4.83
2019-06-10T11:13:47.416Z,6.57
2019-06-10T11:16:17.733Z,4.90
2019-06-10T11:18:49.242Z,4.40
2019-06-10T11:21:22.704Z,5.67
2019-06-10T11:23:54.230Z,6.28
2019-06-10T11:26:26.791Z,5.60
2019-06-10T11:28:55.772Z,4.80
2019-06-10T11:31:26.344Z,5.50
2019-06-10T11:33:58.959Z,6.25
2019-06-10T11:36:28.423Z,5.00
2019-06-10T11:38:59.274Z,4.50
2019-06-10T11:41:29.711Z,5.17
2019-06-10T11:43:59.911Z,4.03
2019-06-10T11:46:32.340Z,3.35
2019-06-10T11:49:03.895Z,8.63
2019-06-10T11:51:33.940Z,7.20
2019-06-10T11:54:04.320Z,8.90
2019-06-10T11:56:34.799Z,3.77
2019-06-10T11:59:09.378Z,3.83
2019-06-10T12:01:36.942Z,4.80
2019-06-10T12:04:07.139Z,4.78
2019-06-10T12:06:37.350Z,3.37
2019-06-10T12:09:09.087Z,5.07
2019-06-10T12:11:39.477Z,3.72
2019-06-10T12:14:09.821Z,3.37
2019-06-10T12:19:12.700Z,6.33
2019-06-10T12:21:43.657Z,6.28
2019-06-10T12:24:13.963Z,3.42
2019-06-10T12:26:45.299Z,5.35
2019-06-10T12:29:15.537Z,3.17
2019-06-10T12:31:45.808Z,8.13
2019-06-10T12:34:15.992Z,5.80
2019-06-10T12:36:47.825Z,3.52
2019-06-10T12:39:18.000Z,5.10
2019-06-10T12:41:48.222Z,4.70
2019-06-10T12:44:18.481Z,5.05
2019-06-10T12:46:48.680Z,5.83
2019-06-10T12:49:18.968Z,5.75
2019-06-10T12:51:52.454Z,5.55
2019-06-10T12:54:22.685Z,7.75
2019-06-10T12:56:54.844Z,9.60
2019-06-10T12:59:24.879Z,4.28
2019-06-10T13:01:55.833Z,6.58
2019-06-10T13:06:55.894Z,7.60
2019-06-10T13:09:26.150Z,7.17
2019-06-10T13:11:57.759Z,4.53
2019-06-10T13:14:28.117Z,8.28
2019-06-10T13:16:58.917Z,8.90
2019-06-10T13:19:34.154Z,7.35
2019-06-10T13:22:05.944Z,4.90
2019-06-10T13:24:34.188Z,5.12
2019-06-10T13:27:06.362Z,5.50
2019-06-10T13:29:36.326Z,9.50
2019-06-10T13:32:08.018Z,5.87
2019-06-10T13:34:38.718Z,6.40
2019-06-10T13:37:08.900Z,7.12
2019-06-10T13:39:39.114Z,7.10
2019-06-10T13:42:10.167Z,6.07
2019-06-10T13:44:42.758Z,8.25
2019-06-10T13:47:14.945Z,10.75
2019-06-10T13:49:44.621Z,5.60
2019-06-10T13:52:16.796Z,6.80
2019-06-10T13:54:46.701Z,7.25
2019-06-10T13:57:16.897Z,4.67
2019-06-10T13:59:47.071Z,6.43
2019-06-10T14:02:17.275Z,5.60
2019-06-10T14:04:47.539Z,4.20
2019-06-10T14:07:17.795Z,5.20
2019-06-10T14:09:48.006Z,3.85
2019-06-10T14:12:18.204Z,5.53
2019-06-10T14:14:48.543Z,7.60
2019-06-10T14:17:22.706Z,6.22
2019-06-10T14:19:51.943Z,4.85
2019-06-10T14:22:22.814Z,5.00
2019-06-10T14:24:54.087Z,5.78
2019-06-10T14:27:25.513Z,4.08
2019-06-10T14:29:55.928Z,4.80
2019-06-10T14:32:26.186Z,8.33
2019-06-10T14:34:56.362Z,5.33
2019-06-10T14:37:35.799Z,5.58
2019-06-10T14:39:58.446Z,4.50
2019-06-10T14:42:28.677Z,6.70
2019-06-10T14:44:58.936Z,8.97
2019-06-10T14:47:29.126Z,9.80
2019-06-10T14:49:59.334Z,4.33
2019-06-10T14:52:31.970Z,5.00
2019-06-10T14:55:02.583Z,4.17
2019-06-10T14:57:33.521Z,3.98
2019-06-10T15:00:07.724Z,6.55
2019-06-10T15:02:37.961Z,3.52
2019-06-10T15:05:09.197Z,4.97
2019-06-10T15:07:39.431Z,5.42
2019-06-10T15:10:12.831Z,4.70
2019-06-10T15:12:42.313Z,7.50
2019-06-10T15:15:14.286Z,5.97
2019-06-10T15:17:44.558Z,5.00
2019-06-10T15:20:15.771Z,6.85
2019-06-10T15:25:17.171Z,7.62
2019-06-10T15:27:47.414Z,7.20
2019-06-10T15:30:25.811Z,6.83
2019-06-10T15:32:49.499Z,5.37
2019-06-10T15:35:22.117Z,6.30
2019-06-10T15:37:52.767Z,6.87
2019-06-10T15:40:23.262Z,5.70
2019-06-10T15:42:53.602Z,8.17
2019-06-10T15:45:23.799Z,10.07
2019-06-10T15:47:54.074Z,6.37
2019-06-10T15:50:27.313Z,9.98
2019-06-10T15:52:56.136Z,9.35
2019-06-10T15:55:54.565Z,6.85
2019-06-10T15:57:58.203Z,9.68
2019-06-10T16:00:29.434Z,7.20
2019-06-10T16:03:02.351Z,10.70
2019-06-10T16:05:32.207Z,8.88
2019-06-10T16:08:02.705Z,8.43
2019-06-10T16:10:32.894Z,7.87
2019-06-10T16:13:03.516Z,5.75
2019-06-10T16:15:33.835Z,7.03
2019-06-10T16:18:04.110Z,6.10
2019-06-10T16:20:34.476Z,6.50
2019-06-10T16:23:04.650Z,5.73
2019-06-10T16:25:34.851Z,5.90
2019-06-10T16:28:05.291Z,14.50
2019-06-10T16:30:35.554Z,6.72
2019-06-10T16:33:05.784Z,7.78
2019-06-10T16:35:36.042Z,6.57
2019-06-10T16:38:06.240Z,5.93
2019-06-10T16:40:36.756Z,7.60
2019-06-10T16:43:07.122Z,9.33
2019-06-10T16:45:37.574Z,9.40
2019-06-10T16:48:07.787Z,6.62
2019-06-10T16:50:37.972Z,7.12
2019-06-10T16:53:08.230Z,8.67
2019-06-10T16:55:38.413Z,8.13
2019-06-10T16:58:20.408Z,8.30
2019-06-10T17:00:59.057Z,8.20
2019-06-10T17:03:36.555Z,8.23
2019-06-10T17:06:06.908Z,8.60
2019-06-10T17:08:37.161Z,9.53
2019-06-10T17:11:07.376Z,12.37
2019-06-10T17:13:37.551Z,10.53
2019-06-10T17:16:08.044Z,13.62
2019-06-10T17:18:38.370Z,12.03
2019-06-10T17:21:08.640Z,12.78
2019-06-10T17:23:38.846Z,12.60
2019-06-10T17:26:09.038Z,10.48
2019-06-10T17:28:39.227Z,12.88
2019-06-10T17:31:09.442Z,15.28
2019-06-10T17:33:42.449Z,14.43
2019-06-10T17:36:12.602Z,13.75
2019-06-10T17:38:43.141Z,14.50
2019-06-10T17:41:13.466Z,11.33
2019-06-10T17:43:45.260Z,13.60
2019-06-10T17:46:18.136Z,13.75
2019-06-10T17:48:48.417Z,11.05
2019-06-10T17:51:18.682Z,11.50
2019-06-10T17:53:48.884Z,11.10
2019-06-10T17:56:19.161Z,14.25
2019-06-10T17:58:54.907Z,13.83
2019-06-10T18:01:22.543Z,9.93
2019-06-10T18:03:53.190Z,13.93
2019-06-10T18:06:25.448Z,9.90
2019-06-10T18:08:55.474Z,14.07
2019-06-10T18:11:26.494Z,11.78
2019-06-10T18:13:57.143Z,15.70
2019-06-10T18:16:28.232Z,14.40
2019-06-10T18:18:59.578Z,15.05
2019-06-10T18:21:30.555Z,13.62
2019-06-10T18:24:07.421Z,13.62
2019-06-10T18:26:37.283Z,15.78
2019-06-10T18:29:09.059Z,11.12
2019-06-10T18:31:37.497Z,15.05
2019-06-10T18:34:07.676Z,11.70
2019-06-10T18:36:37.974Z,11.28
2019-06-10T18:39:08.256Z,12.25
2019-06-10T18:41:40.116Z,10.70
2019-06-10T18:44:19.927Z,16.37
2019-06-10T18:46:43.280Z,14.15
2019-06-10T18:49:13.823Z,14.83
2019-06-10T18:51:44.221Z,13.43
2019-06-10T18:54:14.577Z,16.40
2019-06-10T18:56:44.787Z,14.38
2019-06-10T18:59:20.788Z,14.98
2019-06-10T19:01:46.906Z,13.78
2019-06-10T19:04:17.251Z,10.70
2019-06-10T19:06:47.519Z,10.70
2019-06-10T19:09:17.815Z,9.15
2019-06-10T19:11:48.361Z,7.22
2019-06-10T19:14:18.565Z,5.08
2019-06-10T19:16:48.758Z,7.17
2019-06-10T19:19:18.950Z,3.60
2019-06-10T19:22:01.760Z,6.92
2019-06-10T19:24:23.316Z,4.00
2019-06-10T19:26:52.986Z,9.18
2019-06-10T19:29:33.393Z,7.57
2019-06-10T19:31:56.279Z,6.97
2019-06-10T19:34:28.124Z,9.53
2019-06-10T19:36:58.463Z,11.08
2019-06-10T19:39:28.657Z,12.33
2019-06-10T19:41:58.856Z,11.12
2019-06-10T19:45:07.479Z,14.83
2019-06-10T19:47:39.151Z,11.93
2019-06-10T19:50:12.198Z,16.48
2019-06-10T19:52:45.344Z,15.25
2019-06-10T19:55:14.792Z,12.55
2019-06-10T19:58:10.340Z,14.37
2019-06-10T20:00:39.409Z,16.37
2019-06-10T20:03:09.616Z,13.98
2019-06-10T20:05:40.043Z,14.45
2019-06-10T20:08:12.103Z,12.87
2019-06-10T20:10:42.460Z,11.00
2019-06-10T20:13:12.810Z,11.93
2019-06-10T20:15:44.981Z,10.65
2019-06-10T20:18:15.104Z,10.38
2019-06-10T20:20:47.046Z,8.50
2019-06-10T20:23:17.184Z,8.40
2019-06-10T20:25:48.752Z,10.63
2019-06-10T20:28:19.043Z,10.13
2019-06-10T20:30:49.402Z,8.00
2019-06-10T20:33:36.381Z,8.58
2019-06-10T20:36:07.603Z,7.53
2019-06-10T20:38:37.896Z,9.55
2019-06-10T20:41:12.558Z,7.15
2019-06-10T20:43:44.268Z,9.45
2019-06-10T20:46:13.951Z,7.00
2019-06-10T20:48:47.227Z,7.22
2019-06-10T20:51:16.071Z,8.50
2019-06-10T20:53:47.624Z,9.45
2019-06-10T20:56:20.200Z,8.88
2019-06-10T20:58:52.496Z,10.58
2019-06-10T21:01:25.140Z,11.18
2019-06-10T21:03:55.321Z,13.13
2019-06-10T21:06:25.523Z,11.70
2019-06-10T21:08:55.782Z,11.75
2019-06-10T21:11:26.003Z,11.38
2019-06-10T21:13:56.188Z,11.33
2019-06-10T21:16:26.405Z,10.23
2019-06-10T21:18:56.607Z,10.32
2019-06-10T21:21:26.813Z,11.45
2019-06-10T21:23:57.043Z,10.90
2019-06-10T21:26:27.246Z,13.40
2019-06-10T21:28:57.494Z,13.70
2019-06-10T21:31:29.585Z,12.75
2019-06-10T21:34:02.609Z,14.58
2019-06-10T21:36:32.145Z,12.20
2019-06-10T21:39:03.130Z,12.65
2019-06-10T21:41:34.502Z,11.95
2019-06-10T21:44:04.754Z,13.85
2019-06-10T21:46:34.958Z,14.75
2019-06-10T21:49:05.182Z,16.12
2019-06-10T21:51:35.430Z,14.47
2019-06-10T21:54:05.662Z,13.60
2019-06-10T21:56:35.928Z,14.18
2019-06-10T21:59:06.125Z,13.93
2019-06-10T22:01:36.400Z,14.65
2019-06-10T22:04:06.616Z,16.70
2019-06-10T22:06:36.801Z,15.60
2019-06-10T22:09:07.004Z,16.02
2019-06-10T22:11:37.219Z,15.43
2019-06-10T22:14:07.478Z,17.62
2019-06-10T22:16:37.678Z,17.32
2019-06-10T22:19:07.970Z,19.00
2019-06-10T22:21:38.252Z,18.12
2019-06-10T22:24:08.637Z,18.60
2019-06-10T22:26:38.841Z,19.55
2019-06-10T22:29:09.605Z,19.95
2019-06-10T22:31:39.795Z,20.97
2019-06-10T22:34:12.484Z,22.55
2019-06-10T22:36:42.354Z,18.85
2019-06-10T22:39:12.766Z,19.52
2019-06-10T22:41:42.952Z,20.05
2019-06-10T22:44:13.231Z,21.05
2019-06-10T22:46:43.484Z,20.00
2019-06-10T22:49:13.699Z,21.23
2019-06-10T22:51:43.877Z,20.32
2019-06-10T22:54:14.087Z,19.23
2019-06-10T22:56:44.275Z,19.42
2019-06-10T22:59:14.554Z,18.85
2019-06-10T23:01:44.775Z,18.98
2019-06-10T23:04:15.309Z,16.25
2019-06-10T23:06:45.506Z,18.17
2019-06-10T23:09:15.715Z,17.57
2019-06-10T23:11:45.978Z,20.80
2019-06-10T23:14:16.249Z,16.00
2019-06-10T23:16:46.467Z,16.80
2019-06-10T23:19:16.669Z,15.28
2019-06-10T23:21:46.959Z,16.62
2019-06-10T23:24:17.143Z,16.00
2019-06-10T23:26:47.441Z,17.00
2019-06-10T23:29:17.703Z,16.23
2019-06-10T23:31:54.046Z,18.73
2019-06-10T23:34:23.119Z,20.00
2019-06-10T23:36:54.853Z,19.40
2019-06-10T23:39:23.839Z,19.60
2019-06-10T23:41:56.170Z,19.50
2019-06-10T23:44:26.021Z,23.20
2019-06-10T23:46:57.344Z,21.55
2019-06-10T23:49:27.922Z,24.70
2019-06-10T23:51:59.169Z,23.67
2019-06-10T23:54:32.181Z,24.80
2019-06-10T23:57:05.559Z,23.05
2019-06-10T23:59:33.928Z,23.80
